Time;durP1;ratioP1;P1;durP2;ratioP2;P2;SDS_P1;SDS_P2;PMS_P1;PMS_P2;Temp;Humidity;BMP_temperature;BMP_pressure;BME280_temperature;BME280_humidity;BME280_pressure;Samples;Min_cycle;Max_cycle;Signal;HPM_P1;HPM_P2
2023/06/16 00:04:28;;;;;;;5.50;5.00;;;20.20;59.20;;;;;;10545295;28;20193;-77
2023/06/16 00:09:30;;;;;;;5.00;4.70;;;20.20;59.50;;;;;;10544488;28;20246;-77
2023/06/16 00:14:34;;;;;;;5.67;4.70;;;20.10;59.90;;;;;;10529934;28;20224;-78
2023/06/16 00:19:36;;;;;;;4.50;4.20;;;20.10;60.30;;;;;;10525450;28;20197;-79
2023/06/16 00:24:38;;;;;;;5.40;5.00;;;20.10;59.80;;;;;;10548141;28;20284;-76
2023/06/16 00:29:41;;;;;;;4.90;4.60;;;20.00;59.60;;;;;;10535645;28;20205;-79
2023/06/16 00:34:44;;;;;;;4.60;4.30;;;20.00;60.50;;;;;;10524356;28;20219;-77
2023/06/16 00:39:46;;;;;;;7.43;5.07;;;20.00;60.00;;;;;;10504702;28;20215;-77
2023/06/16 00:44:49;;;;;;;4.93;4.53;;;19.90;59.80;;;;;;10508798;28;20205;-77
2023/06/16 00:49:51;;;;;;;4.60;4.30;;;19.90;60.40;;;;;;10522840;28;20221;-77
2023/06/16 00:54:55;;;;;;;5.40;5.00;;;19.80;61.20;;;;;;10518391;28;20282;-77
2023/06/16 00:59:59;;;;;;;4.83;4.53;;;19.80;61.20;;;;;;10520459;28;20212;-78
2023/06/16 01:05:02;;;;;;;4.77;4.40;;;19.80;61.40;;;;;;10539901;28;20197;-78
2023/06/16 01:10:10;;;;;;;5.47;5.00;;;19.70;61.50;;;;;;10544179;28;20226;-77
2023/06/16 01:15:17;;;;;;;5.17;4.87;;;19.60;61.30;;;;;;10551005;28;20212;-78
2023/06/16 01:20:28;;;;;;;4.70;4.30;;;19.60;61.60;;;;;;10526488;28;20220;-77
2023/06/16 01:25:38;;;;;;;5.40;5.10;;;19.50;61.90;;;;;;10569964;28;20211;-79
2023/06/16 01:30:42;;;;;;;4.97;4.60;;;19.40;61.90;;;;;;10549158;28;20213;-78
2023/06/16 01:35:46;;;;;;;6.10;5.10;;;19.40;62.20;;;;;;10546736;28;20247;-76
2023/06/16 01:40:51;;;;;;;5.00;4.70;;;19.40;62.80;;;;;;10546969;28;20236;-77
2023/06/16 01:45:53;;;;;;;5.67;5.27;;;19.40;62.40;;;;;;10521665;28;20683;-77
2023/06/16 01:50:56;;;;;;;5.83;5.23;;;19.30;62.10;;;;;;10519781;28;20208;-77
2023/06/16 01:55:59;;;;;;;5.37;4.93;;;19.30;62.50;;;;;;10535892;28;20228;-77
2023/06/16 02:01:19;;;;;;;5.20;4.83;;;19.30;62.30;;;;;;10518005;28;20208;-77
2023/06/16 02:06:26;;;;;;;5.47;4.93;;;19.20;62.90;;;;;;10520396;28;20663;-78
2023/06/16 02:11:30;;;;;;;5.67;5.27;;;19.10;63.10;;;;;;10534369;28;20252;-77
2023/06/16 02:16:37;;;;;;;6.40;5.90;;;19.10;64.20;;;;;;10519549;28;20727;-77
2023/06/16 02:21:41;;;;;;;6.37;5.87;;;19.10;63.20;;;;;;10519040;28;20277;-77
2023/06/16 02:26:44;;;;;;;6.40;5.80;;;19.00;63.30;;;;;;10534469;28;20200;-78
2023/06/16 02:31:47;;;;;;;6.17;5.73;;;18.90;63.30;;;;;;10526399;28;20222;-78
2023/06/16 02:36:50;;;;;;;6.17;5.77;;;18.80;63.30;;;;;;10524618;28;20196;-78
2023/06/16 02:41:53;;;;;;;5.83;5.33;;;18.80;64.20;;;;;;10523812;28;20223;-78
2023/06/16 02:46:56;;;;;;;5.70;5.30;;;18.80;63.60;;;;;;10530662;28;20197;-78
2023/06/16 02:51:59;;;;;;;6.50;6.00;;;18.80;63.80;;;;;;10524673;28;20647;-78
2023/06/16 02:57:03;;;;;;;5.43;5.13;;;18.70;64.50;;;;;;10523641;28;20246;-77
2023/06/16 03:02:17;;;;;;;6.37;5.70;;;18.70;64.40;;;;;;10524637;28;20208;-77
2023/06/16 03:07:31;;;;;;;6.77;6.27;;;18.70;63.90;;;;;;10508850;28;20207;-78
2023/06/16 03:12:38;;;;;;;6.80;6.20;;;18.70;62.90;;;;;;10543010;28;20220;-77
2023/06/16 03:17:44;;;;;;;6.33;5.83;;;18.70;64.00;;;;;;10522553;28;20200;-77
2023/06/16 03:22:46;;;;;;;6.67;5.83;;;18.70;64.40;;;;;;10524670;28;20228;-77
2023/06/16 03:27:50;;;;;;;7.30;5.60;;;18.70;64.70;;;;;;10522741;28;20200;-76
2023/06/16 03:32:57;;;;;;;6.40;5.93;;;18.70;65.10;;;;;;10525289;28;20216;-77
2023/06/16 03:37:59;;;;;;;5.80;5.37;;;18.80;65.00;;;;;;10507476;28;20230;-77
2023/06/16 03:43:04;;;;;;;6.23;5.73;;;18.80;64.20;;;;;;10525409;28;20208;-78
2023/06/16 03:48:08;;;;;;;6.40;5.90;;;18.80;64.70;;;;;;10505320;28;20196;-77
2023/06/16 03:53:16;;;;;;;6.10;5.70;;;18.80;64.60;;;;;;10522785;28;20220;-79
2023/06/16 03:58:20;;;;;;;6.50;6.00;;;18.70;64.60;;;;;;10521175;28;20196;-77
2023/06/16 04:03:22;;;;;;;6.23;5.73;;;18.80;65.10;;;;;;10521774;28;20212;-77
2023/06/16 04:08:25;;;;;;;6.43;5.83;;;18.80;65.60;;;;;;10527307;28;21146;-77
2023/06/16 04:13:30;;;;;;;6.07;5.60;;;18.70;65.70;;;;;;10522568;28;20261;-77
2023/06/16 04:18:35;;;;;;;6.33;5.70;;;18.70;65.50;;;;;;10510421;28;20201;-78
2023/06/16 04:23:37;;;;;;;6.10;5.63;;;18.70;65.30;;;;;;10570003;22;20228;-80
2023/06/16 04:28:43;;;;;;;6.20;5.70;;;18.70;66.60;;;;;;10566490;28;20188;-81
2023/06/16 04:33:48;;;;;;;6.50;5.90;;;18.70;66.60;;;;;;10555834;28;20310;-82
2023/06/16 04:38:52;;;;;;;6.37;5.77;;;18.80;67.10;;;;;;10530368;28;20291;-82
2023/06/16 04:43:55;;;;;;;5.87;5.43;;;18.80;66.90;;;;;;10564681;28;20213;-81
2023/06/16 04:48:58;;;;;;;5.60;5.20;;;18.80;67.20;;;;;;10572428;28;20231;-82
2023/06/16 04:54:01;;;;;;;7.37;6.80;;;18.90;66.60;;;;;;10553097;28;20269;-82
2023/06/16 04:59:04;;;;;;;6.30;5.90;;;18.90;66.90;;;;;;10537264;28;20279;-82
2023/06/16 05:04:06;;;;;;;6.13;5.53;;;19.00;67.40;;;;;;10562922;28;20215;-82
2023/06/16 05:09:09;;;;;;;6.00;5.60;;;19.00;66.20;;;;;;10546193;28;20279;-82
2023/06/16 05:14:12;;;;;;;5.57;5.17;;;19.00;66.70;;;;;;10539283;28;20213;-82
2023/06/16 05:19:15;;;;;;;5.60;5.20;;;19.10;66.20;;;;;;10541159;28;20195;-82
2023/06/16 05:24:27;;;;;;;6.00;5.50;;;19.10;67.20;;;;;;10545016;28;20301;-82
2023/06/16 05:29:31;;;;;;;4.40;4.07;;;19.20;66.80;;;;;;10538827;28;20298;-83
2023/06/16 05:34:35;;;;;;;6.47;5.87;;;19.30;67.10;;;;;;10543356;28;20331;-82
2023/06/16 05:39:37;;;;;;;6.40;5.80;;;19.30;66.90;;;;;;10551575;28;20722;-81
2023/06/16 05:44:41;;;;;;;5.90;5.40;;;19.40;66.30;;;;;;10536297;28;20599;-82
2023/06/16 05:49:44;;;;;;;5.67;5.10;;;19.50;66.50;;;;;;10540075;28;20199;-81
2023/06/16 05:54:47;;;;;;;9.63;6.07;;;19.70;66.30;;;;;;10539926;28;20695;-80
2023/06/16 05:59:59;;;;;;;5.60;5.20;;;19.70;65.30;;;;;;10553346;28;20210;-81
2023/06/16 06:05:01;;;;;;;6.30;5.80;;;19.80;65.40;;;;;;10544592;28;20212;-82
2023/06/16 06:10:04;;;;;;;6.63;6.13;;;19.90;65.00;;;;;;10565317;28;20196;-81
2023/06/16 06:15:11;;;;;;;6.73;6.00;;;20.00;64.60;;;;;;10548258;28;20220;-82
2023/06/16 06:20:15;;;;;;;7.93;5.83;;;20.10;64.50;;;;;;10544227;28;20195;-82
2023/06/16 06:25:17;;;;;;;7.83;6.07;;;20.20;64.80;;;;;;10524248;28;20309;-83
2023/06/16 06:30:21;;;;;;;6.90;5.67;;;20.40;64.90;;;;;;10541907;28;20304;-81
2023/06/16 06:35:23;;;;;;;6.23;5.63;;;20.50;63.80;;;;;;10524806;28;20716;-82
2023/06/16 06:40:27;;;;;;;5.40;5.00;;;20.70;64.10;;;;;;10535129;28;20215;-81
2023/06/16 06:45:31;;;;;;;5.30;5.00;;;20.90;63.50;;;;;;10544119;28;20195;-82
2023/06/16 06:50:36;;;;;;;6.10;5.60;;;21.30;63.50;;;;;;10556300;28;20192;-81
2023/06/16 06:55:39;;;;;;;6.90;5.67;;;21.70;62.80;;;;;;10563460;28;20216;-81
2023/06/16 07:00:42;;;;;;;5.60;5.20;;;22.10;61.60;;;;;;10578025;28;20244;-83
2023/06/16 07:05:44;;;;;;;5.80;5.10;;;22.40;59.80;;;;;;10559212;28;20219;-82
2023/06/16 07:10:46;;;;;;;7.50;6.07;;;22.80;59.80;;;;;;10577061;28;20226;-82
2023/06/16 07:15:50;;;;;;;5.87;5.30;;;23.00;58.00;;;;;;10561828;28;20220;-82
2023/06/16 07:20:52;;;;;;;5.70;5.20;;;23.50;57.40;;;;;;10585392;28;20216;-83
2023/06/16 07:25:54;;;;;;;6.77;6.13;;;24.00;57.20;;;;;;10560818;28;20218;-83
2023/06/16 07:30:58;;;;;;;14.50;13.03;;;24.50;55.80;;;;;;10546915;28;20224;-81
2023/06/16 07:36:00;;;;;;;5.63;5.13;;;25.00;54.70;;;;;;10543263;28;20261;-82
2023/06/16 07:41:04;;;;;;;9.20;6.00;;;25.50;53.30;;;;;;10576318;28;20227;-82
2023/06/16 07:46:08;;;;;;;5.30;4.80;;;26.00;53.70;;;;;;10567994;28;20232;-82
2023/06/16 07:51:10;;;;;;;6.03;5.53;;;26.50;52.00;;;;;;10554542;28;20632;-82
2023/06/16 07:56:12;;;;;;;4.70;4.30;;;26.90;51.00;;;;;;10591022;28;20212;-82
2023/06/16 08:01:16;;;;;;;4.70;4.30;;;27.30;51.00;;;;;;10551391;28;20221;-82
2023/06/16 08:06:18;;;;;;;4.80;4.40;;;27.80;49.90;;;;;;10582832;28;20223;-82
2023/06/16 08:11:20;;;;;;;5.10;4.60;;;28.20;48.80;;;;;;10564268;28;20216;-82
2023/06/16 08:16:24;;;;;;;4.73;4.43;;;28.70;47.30;;;;;;10586470;28;20223;-81
2023/06/16 08:21:26;;;;;;;5.03;4.60;;;29.10;45.60;;;;;;10565298;28;20287;-81
2023/06/16 08:26:28;;;;;;;5.70;4.57;;;29.40;45.80;;;;;;10570700;28;20211;-82
2023/06/16 08:31:32;;;;;;;5.10;4.77;;;29.70;44.60;;;;;;10576888;28;20830;-82
2023/06/16 08:36:34;;;;;;;9.10;4.33;;;30.00;44.10;;;;;;10577369;28;20598;-82
2023/06/16 08:41:37;;;;;;;9.97;5.07;;;30.20;42.80;;;;;;10578551;28;20235;-81
2023/06/16 08:46:41;;;;;;;3.90;3.60;;;30.50;41.90;;;;;;10579664;28;20196;-82
2023/06/16 08:51:47;;;;;;;5.23;4.13;;;30.60;39.70;;;;;;10581400;28;20216;-82
2023/06/16 08:56:51;;;;;;;4.13;3.83;;;30.80;39.80;;;;;;10579062;28;20216;-83
2023/06/16 09:01:56;;;;;;;5.17;4.40;;;31.10;40.10;;;;;;10556466;28;20224;-83
2023/06/16 09:06:59;;;;;;;4.50;4.07;;;31.40;39.30;;;;;;10567590;28;20682;-82
2023/06/16 09:12:07;;;;;;;3.80;3.50;;;31.70;37.70;;;;;;10571539;28;20212;-83
2023/06/16 09:17:10;;;;;;;4.93;3.67;;;32.00;38.10;;;;;;10589155;28;20224;-82
2023/06/16 09:22:16;;;;;;;3.90;3.50;;;32.50;38.30;;;;;;10586044;28;20458;-83
2023/06/16 09:27:18;;;;;;;5.97;4.53;;;32.60;36.50;;;;;;10575309;28;20223;-82
2023/06/16 09:32:22;;;;;;;3.90;3.60;;;32.70;36.90;;;;;;10571047;28;20216;-83
2023/06/16 09:37:25;;;;;;;6.20;3.90;;;33.20;35.60;;;;;;10550504;28;20211;-83
2023/06/16 09:42:28;;;;;;;4.17;3.87;;;33.90;35.20;;;;;;10566430;28;20215;-83
2023/06/16 09:47:31;;;;;;;4.23;2.97;;;34.60;34.60;;;;;;10586476;28;20431;-83
2023/06/16 09:52:35;;;;;;;4.00;3.60;;;35.40;34.40;;;;;;10596374;28;20244;-83
2023/06/16 09:57:38;;;;;;;4.15;3.85;;;36.50;33.90;;;;;;10550154;28;20272;-83
2023/06/16 10:02:42;;;;;;;4.67;4.07;;;36.20;32.80;;;;;;10564568;28;20283;-83
2023/06/16 10:07:48;;;;;;;4.40;3.78;;;35.50;33.80;;;;;;10581249;28;20187;-83
2023/06/16 10:12:51;;;;;;;3.58;3.38;;;36.60;33.10;;;;;;10572605;28;20269;-83
2023/06/16 10:18:02;;;;;;;6.30;3.28;;;38.20;32.50;;;;;;10580223;28;20215;-84
2023/06/16 10:23:05;;;;;;;3.40;3.20;;;39.70;30.30;;;;;;10578393;28;20223;-82
2023/06/16 10:28:11;;;;;;;3.70;3.40;;;39.60;29.70;;;;;;10558152;28;20200;-83
2023/06/16 10:33:18;;;;;;;4.30;3.80;;;37.90;30.50;;;;;;10546559;28;20272;-83
2023/06/16 10:38:33;;;;;;;3.97;3.67;;;35.90;31.40;;;;;;10573930;28;20194;-83
2023/06/16 10:43:35;;;;;;;4.90;4.60;;;34.20;33.30;;;;;;10573605;28;20287;-80
2023/06/16 10:48:57;;;;;;;7.30;4.20;;;32.80;34.60;;;;;;10576516;28;20283;-83
2023/06/16 10:53:59;;;;;;;5.70;4.70;;;31.60;34.10;;;;;;10577359;28;20222;-83
2023/06/16 10:59:01;;;;;;;4.33;4.03;;;30.60;35.40;;;;;;10574860;28;20191;-83
2023/06/16 11:04:05;;;;;;;3.93;3.73;;;30.00;36.70;;;;;;10575851;28;20218;-83
2023/06/16 11:09:07;;;;;;;5.23;4.67;;;29.60;36.10;;;;;;10553683;28;20204;-82
2023/06/16 11:14:11;;;;;;;4.63;4.17;;;29.10;36.00;;;;;;10542524;28;20219;-83
2023/06/16 11:19:18;;;;;;;4.83;4.43;;;28.70;37.00;;;;;;10571479;28;20197;-83
2023/06/16 11:24:20;;;;;;;4.97;4.53;;;28.30;37.40;;;;;;10575936;28;20265;-83
2023/06/16 11:29:26;;;;;;;5.13;4.60;;;28.10;37.70;;;;;;10567182;28;20204;-82
2023/06/16 11:34:30;;;;;;;5.30;4.80;;;27.80;38.20;;;;;;10565784;28;20701;-81
2023/06/16 11:39:42;;;;;;;4.70;4.30;;;27.50;38.50;;;;;;10583550;28;20639;-82
2023/06/16 11:44:44;;;;;;;5.10;4.63;;;27.30;39.60;;;;;;10543018;28;20670;-81
2023/06/16 11:49:48;;;;;;;5.70;5.20;;;27.10;40.10;;;;;;10562966;28;20608;-82
2023/06/16 11:54:50;;;;;;;5.20;4.80;;;27.00;40.40;;;;;;10583059;28;20640;-82
2023/06/16 11:59:52;;;;;;;5.53;5.03;;;26.90;39.80;;;;;;10579711;28;20225;-82
2023/06/16 12:04:56;;;;;;;5.00;4.60;;;26.80;39.80;;;;;;10552634;28;20633;-82
2023/06/16 12:09:58;;;;;;;4.80;4.40;;;26.60;40.60;;;;;;10570874;28;20192;-82
2023/06/16 12:15:02;;;;;;;4.67;4.37;;;26.60;40.50;;;;;;10571378;28;20228;-82
2023/06/16 12:20:09;;;;;;;5.40;4.90;;;26.50;40.60;;;;;;10576110;28;20253;-82
2023/06/16 12:25:13;;;;;;;4.83;4.47;;;26.40;40.10;;;;;;10561556;28;20236;-82
2023/06/16 12:30:15;;;;;;;5.33;4.83;;;26.40;40.70;;;;;;10574430;28;20207;-82
2023/06/16 12:35:27;;;;;;;4.60;4.30;;;26.40;40.50;;;;;;10577577;28;20690;-82
2023/06/16 12:40:31;;;;;;;5.17;4.77;;;26.40;41.20;;;;;;10576126;28;20277;-82
2023/06/16 12:45:33;;;;;;;6.20;4.43;;;26.40;41.70;;;;;;10577706;28;20597;-82
2023/06/16 12:50:36;;;;;;;4.97;4.57;;;26.50;40.30;;;;;;10575887;28;20732;-83
2023/06/16 12:55:38;;;;;;;5.03;4.63;;;26.50;41.30;;;;;;10576857;28;20615;-80
2023/06/16 13:00:40;;;;;;;5.23;4.73;;;26.50;41.60;;;;;;10564927;28;20188;-82
2023/06/16 13:05:44;;;;;;;8.60;4.70;;;26.60;41.00;;;;;;10580946;28;20301;-81
2023/06/16 13:10:46;;;;;;;5.23;4.83;;;26.60;41.40;;;;;;10558663;28;20275;-81
2023/06/16 13:15:48;;;;;;;5.50;5.10;;;26.60;40.90;;;;;;10584734;28;20212;-82
2023/06/16 13:20:51;;;;;;;6.57;5.23;;;26.60;41.60;;;;;;10558367;28;20216;-82
2023/06/16 13:25:54;;;;;;;5.70;4.90;;;26.50;41.90;;;;;;10557295;28;20187;-81
2023/06/16 13:30:56;;;;;;;5.73;5.23;;;26.50;41.80;;;;;;10563917;28;20269;-82
2023/06/16 13:35:59;;;;;;;5.03;4.63;;;26.50;41.50;;;;;;10538045;28;20215;-82
2023/06/16 13:41:01;;;;;;;6.50;5.30;;;26.60;41.30;;;;;;10569545;28;20635;-81
2023/06/16 13:46:05;;;;;;;5.80;5.30;;;26.60;41.00;;;;;;10571002;28;20277;-82
2023/06/16 13:51:08;;;;;;;5.10;4.70;;;26.60;41.90;;;;;;10560150;28;20219;-82
2023/06/16 13:56:11;;;;;;;4.90;4.23;;;26.50;40.60;;;;;;10554089;28;20690;-81
2023/06/16 14:01:13;;;;;;;6.37;4.83;;;26.50;40.80;;;;;;10558350;28;20589;-81
2023/06/16 14:06:16;;;;;;;7.10;4.20;;;26.50;39.70;;;;;;10577001;28;20279;-82
2023/06/16 14:11:18;;;;;;;5.23;4.80;;;26.50;40.90;;;;;;10542623;28;20216;-82
2023/06/16 14:16:21;;;;;;;5.90;4.80;;;26.50;40.00;;;;;;10578039;28;20228;-82
2023/06/16 14:21:24;;;;;;;6.53;5.10;;;26.50;40.60;;;;;;10559497;28;20287;-82
2023/06/16 14:26:27;;;;;;;7.37;4.80;;;26.60;40.60;;;;;;10562002;28;20867;-82
2023/06/16 14:31:29;;;;;;;4.07;3.80;;;26.70;39.80;;;;;;10549434;28;20308;-82
2023/06/16 14:36:32;;;;;;;5.23;4.30;;;26.90;39.60;;;;;;10565006;28;20224;-83
2023/06/16 14:41:36;;;;;;;6.80;5.07;;;26.90;40.60;;;;;;10542879;28;20231;-82
2023/06/16 14:46:39;;;;;;;6.23;5.00;;;27.00;41.00;;;;;;10567006;28;20724;-82
2023/06/16 14:51:43;;;;;;;5.10;4.70;;;27.00;39.10;;;;;;10574119;28;20224;-82
2023/06/16 14:56:45;;;;;;;6.30;5.70;;;26.90;40.50;;;;;;10561952;28;20303;-83
2023/06/16 15:01:47;;;;;;;5.30;4.90;;;26.80;40.60;;;;;;10565229;28;20218;-81
2023/06/16 15:06:51;;;;;;;8.30;5.50;;;26.60;41.50;;;;;;10571727;28;20725;-81
2023/06/16 15:11:53;;;;;;;6.07;5.47;;;26.40;41.90;;;;;;10575297;28;20216;-82
2023/06/16 15:16:55;;;;;;;10.93;7.00;;;26.30;42.40;;;;;;10543227;28;20225;-81
2023/06/16 15:21:58;;;;;;;5.57;4.67;;;26.20;42.20;;;;;;10530525;28;20228;-82
2023/06/16 15:27:00;;;;;;;5.90;5.30;;;26.20;42.60;;;;;;10556028;28;20239;-80
2023/06/16 15:32:02;;;;;;;5.03;4.63;;;26.20;42.30;;;;;;10522609;28;20224;-80
2023/06/16 15:37:09;;;;;;;5.17;4.77;;;26.10;41.40;;;;;;10561796;28;20241;-81
2023/06/16 15:42:11;;;;;;;5.23;4.83;;;26.10;42.10;;;;;;10573621;28;20808;-81
2023/06/16 15:47:14;;;;;;;5.37;4.87;;;26.00;42.70;;;;;;10545772;28;20193;-82
2023/06/16 15:52:18;;;;;;;6.77;5.60;;;26.10;42.60;;;;;;10575056;28;20215;-80
2023/06/16 15:57:21;;;;;;;5.30;4.90;;;26.10;42.30;;;;;;10548594;28;20220;-80
2023/06/16 16:02:23;;;;;;;5.87;5.23;;;26.00;42.70;;;;;;10567514;28;20221;-80
2023/06/16 16:07:29;;;;;;;6.20;5.10;;;25.90;43.00;;;;;;10553579;28;20224;-79
2023/06/16 16:12:32;;;;;;;5.10;4.70;;;25.80;43.70;;;;;;10573454;28;20222;-82
2023/06/16 16:17:34;;;;;;;6.50;5.60;;;25.70;44.70;;;;;;10552770;28;20702;-80
2023/06/16 16:22:38;;;;;;;8.67;6.50;;;25.70;45.10;;;;;;10578024;28;20227;-81
2023/06/16 16:27:40;;;;;;;6.30;5.80;;;25.60;44.00;;;;;;10584074;28;20226;-82
2023/06/16 16:32:42;;;;;;;7.83;7.13;;;25.50;44.10;;;;;;10583857;28;20715;-82
2023/06/16 16:37:46;;;;;;;11.00;6.53;;;25.50;44.50;;;;;;10570330;28;20568;-79
2023/06/16 16:42:48;;;;;;;5.60;5.13;;;25.50;45.00;;;;;;10560171;28;20220;-82
2023/06/16 16:47:50;;;;;;;7.53;5.53;;;25.50;44.30;;;;;;10575375;28;20287;-82
2023/06/16 16:52:54;;;;;;;7.47;6.03;;;25.50;45.00;;;;;;10573349;28;20215;-79
2023/06/16 16:57:56;;;;;;;5.20;4.70;;;25.40;44.30;;;;;;10567287;28;20240;-80
2023/06/16 17:02:58;;;;;;;6.50;6.00;;;25.50;44.70;;;;;;10544417;28;20257;-80
2023/06/16 17:08:02;;;;;;;5.80;5.30;;;25.40;44.70;;;;;;10561447;28;20188;-80
2023/06/16 17:13:06;;;;;;;5.23;4.60;;;25.50;45.20;;;;;;10564564;28;20215;-80
2023/06/16 17:18:08;;;;;;;5.50;5.00;;;25.50;44.90;;;;;;10554299;28;20223;-80
2023/06/16 17:23:12;;;;;;;5.70;5.30;;;25.40;45.60;;;;;;10542404;28;20255;-79
2023/06/16 17:28:14;;;;;;;6.20;5.70;;;25.40;45.20;;;;;;10558331;28;20572;-79
2023/06/16 17:33:16;;;;;;;6.23;5.63;;;25.40;44.20;;;;;;10558840;28;20211;-80
2023/06/16 17:38:20;;;;;;;8.97;5.93;;;25.40;44.30;;;;;;10557170;28;20224;-80
2023/06/16 17:43:23;;;;;;;5.80;5.40;;;25.40;44.60;;;;;;10555966;28;20739;-80
2023/06/16 17:48:25;;;;;;;6.20;5.50;;;25.30;45.60;;;;;;10563422;28;20196;-80
2023/06/16 17:53:28;;;;;;;6.43;5.83;;;25.30;45.30;;;;;;10532421;28;20204;-80
2023/06/16 17:58:32;;;;;;;6.40;5.20;;;25.30;45.60;;;;;;10572880;28;20221;-80
2023/06/16 18:03:35;;;;;;;6.30;5.50;;;25.20;46.10;;;;;;10555779;28;20227;-81
2023/06/16 18:08:38;;;;;;;5.47;5.00;;;25.10;46.20;;;;;;10565365;28;20678;-82
2023/06/16 18:13:40;;;;;;;7.80;4.97;;;25.00;47.70;;;;;;10564027;28;20223;-80
2023/06/16 18:18:42;;;;;;;6.90;5.80;;;25.00;46.30;;;;;;10568842;28;20220;-82
2023/06/16 18:23:46;;;;;;;5.50;5.10;;;25.00;46.80;;;;;;10563529;28;20224;-80
2023/06/16 18:28:48;;;;;;;5.67;5.17;;;24.90;46.60;;;;;;10564279;28;20719;-82
2023/06/16 18:33:50;;;;;;;5.80;5.40;;;24.90;46.10;;;;;;10566270;28;20585;-82
2023/06/16 18:44:21;;;;;;;6.67;5.83;;;24.80;47.20;;;;;;10507674;28;20528;-80
2023/06/16 18:49:25;;;;;;;6.60;6.00;;;24.70;46.10;;;;;;10496341;28;20205;-81
2023/06/16 18:54:27;;;;;;;12.40;4.63;;;24.60;47.40;;;;;;10483369;28;20737;-80
2023/06/16 18:59:32;;;;;;;5.73;5.17;;;24.60;49.30;;;;;;10490333;28;20375;-80
2023/06/16 19:04:34;;;;;;;6.70;6.03;;;24.60;46.80;;;;;;10491486;28;20232;-81
2023/06/16 19:09:38;;;;;;;5.60;5.07;;;24.50;48.00;;;;;;10497910;28;20200;-78
2023/06/16 19:14:43;;;;;;;5.40;5.00;;;24.50;48.60;;;;;;10494883;28;20228;-81
2023/06/16 19:19:45;;;;;;;6.47;5.87;;;24.40;49.60;;;;;;10494321;28;20236;-79
2023/06/16 19:24:47;;;;;;;5.10;4.70;;;24.30;49.80;;;;;;10493128;28;20239;-81
2023/06/16 19:29:50;;;;;;;6.23;4.50;;;24.20;51.30;;;;;;10488747;28;20217;-81
2023/06/16 19:34:52;;;;;;;5.33;4.70;;;24.10;51.30;;;;;;10492092;28;20747;-81
2023/06/16 19:39:54;;;;;;;5.43;4.93;;;24.00;51.40;;;;;;10482657;28;20235;-81
2023/06/16 19:44:58;;;;;;;5.63;5.13;;;23.90;51.60;;;;;;10471736;28;20217;-79
2023/06/16 19:50:02;;;;;;;5.80;5.13;;;23.80;52.00;;;;;;10491411;28;20289;-82
2023/06/16 19:55:05;;;;;;;5.67;5.17;;;23.60;52.50;;;;;;10470970;28;20221;-82
2023/06/16 20:00:10;;;;;;;6.53;4.90;;;23.50;52.90;;;;;;10466321;28;20967;-82
2023/06/16 20:05:21;;;;;;;6.20;5.30;;;23.40;53.10;;;;;;10467318;28;20588;-83
2023/06/16 20:10:24;;;;;;;5.40;5.10;;;23.30;53.70;;;;;;10460638;28;20200;-82
2023/06/16 20:15:28;;;;;;;6.03;4.70;;;23.20;53.90;;;;;;10452868;28;20221;-81
2023/06/16 20:20:30;;;;;;;8.80;5.23;;;23.00;54.40;;;;;;10462765;28;20291;-82
2023/06/16 20:25:32;;;;;;;6.03;5.40;;;22.90;54.60;;;;;;10467174;28;20201;-82
2023/06/16 20:30:36;;;;;;;4.80;4.50;;;22.80;54.90;;;;;;10465390;28;20201;-82
2023/06/16 20:35:38;;;;;;;6.40;5.53;;;22.80;55.20;;;;;;10446088;28;20206;-82
2023/06/16 20:40:41;;;;;;;4.83;4.40;;;22.70;55.80;;;;;;10455351;28;20291;-82
2023/06/16 20:45:44;;;;;;;3.87;3.57;;;22.60;56.00;;;;;;10465796;28;20220;-80
2023/06/16 20:50:48;;;;;;;5.80;5.30;;;22.50;56.30;;;;;;10475431;28;20202;-81
2023/06/16 20:55:50;;;;;;;5.70;5.13;;;22.50;56.10;;;;;;10461914;28;20254;-82
2023/06/16 21:00:54;;;;;;;6.00;5.50;;;22.50;56.80;;;;;;10466067;28;20218;-83
2023/06/16 21:05:57;;;;;;;7.70;5.90;;;22.40;56.60;;;;;;10462878;28;20427;-82
2023/06/16 21:10:59;;;;;;;6.47;5.97;;;22.40;56.60;;;;;;10453308;28;20217;-82
2023/06/16 21:16:04;;;;;;;5.40;5.00;;;22.30;56.70;;;;;;10466545;28;20194;-82
2023/06/16 21:21:06;;;;;;;6.30;5.73;;;22.20;56.90;;;;;;10464237;28;20218;-82
2023/06/16 21:26:08;;;;;;;5.30;4.90;;;22.20;56.70;;;;;;10465365;28;20202;-82
2023/06/16 21:31:11;;;;;;;6.07;5.53;;;22.10;56.50;;;;;;10465384;28;20221;-82
2023/06/16 21:36:14;;;;;;;6.70;6.10;;;22.00;57.30;;;;;;10464811;28;20243;-81
2023/06/16 21:41:16;;;;;;;6.27;5.77;;;21.90;57.60;;;;;;10458143;28;20228;-82
2023/06/16 21:46:19;;;;;;;5.57;5.07;;;21.80;57.00;;;;;;10455272;28;20263;-82
2023/06/16 21:51:21;;;;;;;5.90;5.40;;;21.70;57.70;;;;;;10461012;28;20699;-82
2023/06/16 21:56:23;;;;;;;6.53;5.93;;;21.70;57.40;;;;;;10463668;28;20241;-82
2023/06/16 22:01:27;;;;;;;4.80;4.50;;;21.60;57.60;;;;;;10459668;28;20280;-82
2023/06/16 22:06:31;;;;;;;6.47;5.60;;;21.50;57.90;;;;;;10464572;28;20194;-82
2023/06/16 22:11:33;;;;;;;4.87;4.47;;;21.50;57.80;;;;;;10466293;28;20289;-82
2023/06/16 22:16:36;;;;;;;5.93;5.53;;;21.40;58.20;;;;;;10464271;28;20252;-82
2023/06/16 22:21:39;;;;;;;6.37;5.77;;;21.30;58.30;;;;;;10481079;22;20225;-79
2023/06/16 22:26:41;;;;;;;5.10;4.70;;;21.30;58.10;;;;;;10455270;28;20557;-79
2023/06/16 22:31:44;;;;;;;5.63;5.23;;;21.20;59.00;;;;;;10436738;28;20213;-79
2023/06/16 22:36:47;;;;;;;6.93;6.33;;;21.10;58.80;;;;;;10428621;28;20202;-79
2023/06/16 22:41:49;;;;;;;5.50;5.10;;;21.10;58.70;;;;;;10429504;28;20252;-79
2023/06/16 22:46:56;;;;;;;5.10;4.77;;;21.00;58.70;;;;;;10431533;28;20647;-79
2023/06/16 22:51:58;;;;;;;5.23;4.77;;;21.00;58.70;;;;;;10433651;28;20214;-79
2023/06/16 22:57:00;;;;;;;4.57;4.23;;;20.90;58.70;;;;;;10436523;28;20217;-79
2023/06/16 23:02:04;;;;;;;5.10;4.70;;;20.80;58.80;;;;;;10429895;28;20219;-79
2023/06/16 23:07:07;;;;;;;6.00;5.40;;;20.70;59.00;;;;;;10421134;28;20202;-79
2023/06/16 23:12:12;;;;;;;5.90;5.40;;;20.70;59.50;;;;;;10411664;28;20238;-79
2023/06/16 23:17:15;;;;;;;5.27;4.70;;;20.60;59.70;;;;;;10428381;28;20206;-78
2023/06/16 23:22:17;;;;;;;5.70;4.60;;;20.60;59.90;;;;;;10417912;28;20218;-78
2023/06/16 23:27:20;;;;;;;5.27;4.83;;;20.60;59.90;;;;;;10438103;28;20712;-78
2023/06/16 23:32:24;;;;;;;5.77;5.27;;;20.60;59.90;;;;;;10412620;28;20617;-78
2023/06/16 23:37:26;;;;;;;4.93;4.60;;;20.50;59.90;;;;;;10439338;28;20198;-79
2023/06/16 23:42:28;;;;;;;5.43;4.90;;;20.50;59.90;;;;;;10420957;28;20401;-78
2023/06/16 23:47:32;;;;;;;5.80;5.30;;;20.50;59.60;;;;;;10443223;28;20566;-78
2023/06/16 23:52:34;;;;;;;5.70;4.13;;;20.40;60.30;;;;;;10431606;28;20221;-78
2023/06/16 23:57:36;;;;;;;5.20;4.80;;;20.40;60.80;;;;;;10419532;28;20233;-79
